Terminal Aerodrome Forecast
Issued by NWS

Home | Current Version | Previous Version | Text Only | Print | Product List | Glossary Off
Versions: 1 2 3 4 5 6 7 8 9 10 11 12 13 14 15 16

000
FTUS43 KBIS 021121
TAFJMS
TAF
KJMS 021121Z 0212/0312 20009KT P6SM SCT250
     FM021800 20018G28KT P6SM SCT120
     FM022200 22019G29KT P6SM -TSRA BKN090CB OVC110
     FM030000 25016G25KT P6SM -SHRA VCTS BKN080CB
     FM030300 24009KT P6SM SCT150
     FM030800 31014KT P6SM SCT100=

USA.gov is the U.S. government's official web portal to all federal, state and local government web resources and services.